Weather at Horseshoe Bay Resort Airpark

Public forecast

Using degrees Fahrenheit for public forecast. Weather courtesy of forecast.io.

Current aviation weather report (METAR) for Horseshoe Bay Resort Airpark

Retrieved 2022/01/17 04:35 UTC (21 minutes ago):

KDZB 170435Z AUTO 20003KT 10SM CLR 05/M05 A3006 RMK AO2 T00471048

Closest aviation forecast (TAF) to Horseshoe Bay Resort Airpark

Closest forecast is Austin Bergstrom International Airport, 41.2 nm (76.2 km) ESE. Retrieved 2022-01-17 00:22 UTC (5 hours ago):

TAF KAUS 162320Z 1700/1806 VRB03KT P6SM SKC FM172000 13005KT P6SM SKC